sensor_id;sensor_type;location;lat;lon;timestamp;P1;durP1;ratioP1;P2;durP2;ratioP2
10872;SDS011;34586;53.616;10.032;2023-01-28T00:01:08;1.60;;;0.70;;
10872;SDS011;34586;53.616;10.032;2023-01-28T00:03:36;3.43;;;0.70;;
10872;SDS011;34586;53.616;10.032;2023-01-28T00:06:05;3.10;;;0.80;;
10872;SDS011;34586;53.616;10.032;2023-01-28T00:08:33;2.30;;;0.97;;
10872;SDS011;34586;53.616;10.032;2023-01-28T00:10:59;1.43;;;0.80;;
10872;SDS011;34586;53.616;10.032;2023-01-28T00:13:26;1.47;;;0.80;;
10872;SDS011;34586;53.616;10.032;2023-01-28T00:15:59;2.70;;;0.93;;
10872;SDS011;34586;53.616;10.032;2023-01-28T00:18:27;1.40;;;0.93;;
10872;SDS011;34586;53.616;10.032;2023-01-28T00:23:25;2.67;;;0.90;;
10872;SDS011;34586;53.616;10.032;2023-01-28T00:25:52;2.73;;;0.87;;
10872;SDS011;34586;53.616;10.032;2023-01-28T00:28:19;3.50;;;1.47;;
10872;SDS011;34586;53.616;10.032;2023-01-28T00:30:45;2.40;;;1.10;;
10872;SDS011;34586;53.616;10.032;2023-01-28T00:33:11;5.20;;;1.40;;
10872;SDS011;34586;53.616;10.032;2023-01-28T00:35:37;1.57;;;1.00;;
10872;SDS011;34586;53.616;10.032;2023-01-28T00:38:02;2.80;;;1.03;;
10872;SDS011;34586;53.616;10.032;2023-01-28T00:40:28;2.90;;;0.90;;
10872;SDS011;34586;53.616;10.032;2023-01-28T00:42:54;3.73;;;0.90;;
10872;SDS011;34586;53.616;10.032;2023-01-28T00:45:19;1.10;;;0.80;;
10872;SDS011;34586;53.616;10.032;2023-01-28T00:47:45;2.93;;;0.80;;
10872;SDS011;34586;53.616;10.032;2023-01-28T00:50:12;3.47;;;0.67;;
10872;SDS011;34586;53.616;10.032;2023-01-28T00:52:38;1.60;;;0.80;;
10872;SDS011;34586;53.616;10.032;2023-01-28T00:55:04;1.73;;;0.90;;
10872;SDS011;34586;53.616;10.032;2023-01-28T00:57:30;1.77;;;0.80;;
10872;SDS011;34586;53.616;10.032;2023-01-28T00:59:55;2.20;;;1.13;;
10872;SDS011;34586;53.616;10.032;2023-01-28T01:02:21;1.40;;;1.03;;
10872;SDS011;34586;53.616;10.032;2023-01-28T01:04:47;3.47;;;0.87;;
10872;SDS011;34586;53.616;10.032;2023-01-28T01:07:26;2.83;;;1.30;;
10872;SDS011;34586;53.616;10.032;2023-01-28T01:10:05;3.03;;;1.27;;
10872;SDS011;34586;53.616;10.032;2023-01-28T01:12:35;1.53;;;0.80;;
10872;SDS011;34586;53.616;10.032;2023-01-28T01:15:00;3.03;;;1.30;;
10872;SDS011;34586;53.616;10.032;2023-01-28T01:17:28;2.90;;;1.33;;
10872;SDS011;34586;53.616;10.032;2023-01-28T01:19:55;3.30;;;1.37;;
10872;SDS011;34586;53.616;10.032;2023-01-28T01:22:21;4.00;;;1.60;;
10872;SDS011;34586;53.616;10.032;2023-01-28T01:24:47;2.10;;;1.27;;
10872;SDS011;34586;53.616;10.032;2023-01-28T01:27:12;3.43;;;1.20;;
10872;SDS011;34586;53.616;10.032;2023-01-28T01:29:38;4.17;;;1.40;;
10872;SDS011;34586;53.616;10.032;2023-01-28T01:32:04;3.23;;;1.60;;
10872;SDS011;34586;53.616;10.032;2023-01-28T01:34:29;2.73;;;1.30;;
10872;SDS011;34586;53.616;10.032;2023-01-28T01:36:55;2.47;;;1.20;;
10872;SDS011;34586;53.616;10.032;2023-01-28T01:39:20;2.40;;;1.57;;
10872;SDS011;34586;53.616;10.032;2023-01-28T01:41:46;1.93;;;1.30;;
10872;SDS011;34586;53.616;10.032;2023-01-28T01:47:15;1.97;;;1.17;;
10872;SDS011;34586;53.616;10.032;2023-01-28T01:49:42;2.13;;;1.33;;
10872;SDS011;34586;53.616;10.032;2023-01-28T01:52:09;1.77;;;1.20;;
10872;SDS011;34586;53.616;10.032;2023-01-28T01:54:39;2.33;;;1.27;;
10872;SDS011;34586;53.616;10.032;2023-01-28T01:57:09;2.27;;;0.93;;
10872;SDS011;34586;53.616;10.032;2023-01-28T01:59:38;2.87;;;1.30;;
10872;SDS011;34586;53.616;10.032;2023-01-28T02:02:06;2.80;;;1.10;;
10872;SDS011;34586;53.616;10.032;2023-01-28T02:04:34;3.03;;;1.27;;
10872;SDS011;34586;53.616;10.032;2023-01-28T02:07:03;2.03;;;1.20;;
10872;SDS011;34586;53.616;10.032;2023-01-28T02:09:33;3.03;;;1.20;;
10872;SDS011;34586;53.616;10.032;2023-01-28T02:12:15;4.87;;;1.60;;
10872;SDS011;34586;53.616;10.032;2023-01-28T02:14:46;2.47;;;1.33;;
10872;SDS011;34586;53.616;10.032;2023-01-28T02:17:15;1.63;;;1.27;;
10872;SDS011;34586;53.616;10.032;2023-01-28T02:19:50;5.90;;;1.63;;
10872;SDS011;34586;53.616;10.032;2023-01-28T02:25:08;2.33;;;1.33;;
10872;SDS011;34586;53.616;10.032;2023-01-28T02:30:32;2.20;;;1.40;;
10872;SDS011;34586;53.616;10.032;2023-01-28T02:33:10;3.03;;;1.70;;
10872;SDS011;34586;53.616;10.032;2023-01-28T02:35:43;4.00;;;1.57;;
10872;SDS011;34586;53.616;10.032;2023-01-28T02:38:15;2.53;;;1.37;;
10872;SDS011;34586;53.616;10.032;2023-01-28T02:41:05;4.33;;;1.43;;
10872;SDS011;34586;53.616;10.032;2023-01-28T02:43:41;2.17;;;1.30;;
10872;SDS011;34586;53.616;10.032;2023-01-28T02:46:50;2.43;;;1.20;;
10872;SDS011;34586;53.616;10.032;2023-01-28T02:49:15;2.43;;;1.10;;
10872;SDS011;34586;53.616;10.032;2023-01-28T03:00:10;2.87;;;1.30;;
10872;SDS011;34586;53.616;10.032;2023-01-28T03:02:53;2.93;;;1.53;;
10872;SDS011;34586;53.616;10.032;2023-01-28T03:05:27;2.67;;;1.50;;
10872;SDS011;34586;53.616;10.032;2023-01-28T03:07:56;1.90;;;1.40;;
10872;SDS011;34586;53.616;10.032;2023-01-28T03:10:23;1.73;;;1.13;;
10872;SDS011;34586;53.616;10.032;2023-01-28T03:12:54;3.30;;;1.50;;
10872;SDS011;34586;53.616;10.032;2023-01-28T03:15:40;1.87;;;1.17;;
10872;SDS011;34586;53.616;10.032;2023-01-28T03:18:36;3.13;;;1.30;;
10872;SDS011;34586;53.616;10.032;2023-01-28T03:21:33;1.90;;;1.80;;
10872;SDS011;34586;53.616;10.032;2023-01-28T03:30:38;4.23;;;1.60;;
10872;SDS011;34586;53.616;10.032;2023-01-28T03:33:26;4.10;;;1.33;;
10872;SDS011;34586;53.616;10.032;2023-01-28T03:36:11;2.37;;;1.50;;
10872;SDS011;34586;53.616;10.032;2023-01-28T03:38:55;2.93;;;1.80;;
10872;SDS011;34586;53.616;10.032;2023-01-28T03:41:23;2.17;;;1.73;;
10872;SDS011;34586;53.616;10.032;2023-01-28T03:43:50;3.30;;;1.90;;
10872;SDS011;34586;53.616;10.032;2023-01-28T03:46:16;2.27;;;1.60;;
10872;SDS011;34586;53.616;10.032;2023-01-28T03:48:42;3.20;;;1.90;;
10872;SDS011;34586;53.616;10.032;2023-01-28T03:51:08;2.53;;;1.50;;
10872;SDS011;34586;53.616;10.032;2023-01-28T03:53:33;3.87;;;2.23;;
10872;SDS011;34586;53.616;10.032;2023-01-28T03:55:59;4.63;;;2.00;;
10872;SDS011;34586;53.616;10.032;2023-01-28T03:58:25;1.83;;;1.53;;
10872;SDS011;34586;53.616;10.032;2023-01-28T04:01:04;2.77;;;1.87;;
10872;SDS011;34586;53.616;10.032;2023-01-28T04:03:29;3.03;;;1.93;;
10872;SDS011;34586;53.616;10.032;2023-01-28T04:08:24;2.27;;;2.07;;
10872;SDS011;34586;53.616;10.032;2023-01-28T04:10:51;2.90;;;2.00;;
10872;SDS011;34586;53.616;10.032;2023-01-28T04:13:16;2.93;;;2.17;;
10872;SDS011;34586;53.616;10.032;2023-01-28T04:15:45;4.73;;;1.97;;
10872;SDS011;34586;53.616;10.032;2023-01-28T04:18:11;2.83;;;2.00;;
10872;SDS011;34586;53.616;10.032;2023-01-28T04:20:37;2.93;;;1.90;;
10872;SDS011;34586;53.616;10.032;2023-01-28T04:23:04;5.17;;;2.30;;
10872;SDS011;34586;53.616;10.032;2023-01-28T04:25:31;7.10;;;2.13;;
10872;SDS011;34586;53.616;10.032;2023-01-28T04:27:56;3.50;;;2.30;;
10872;SDS011;34586;53.616;10.032;2023-01-28T04:30:22;2.13;;;1.83;;
10872;SDS011;34586;53.616;10.032;2023-01-28T04:32:48;5.97;;;2.20;;
10872;SDS011;34586;53.616;10.032;2023-01-28T04:35:17;4.50;;;2.03;;
10872;SDS011;34586;53.616;10.032;2023-01-28T04:37:43;5.30;;;1.97;;
10872;SDS011;34586;53.616;10.032;2023-01-28T04:40:10;3.07;;;2.30;;
10872;SDS011;34586;53.616;10.032;2023-01-28T04:42:36;3.77;;;2.30;;
10872;SDS011;34586;53.616;10.032;2023-01-28T04:45:03;7.83;;;2.70;;
10872;SDS011;34586;53.616;10.032;2023-01-28T04:47:29;3.27;;;2.30;;
10872;SDS011;34586;53.616;10.032;2023-01-28T04:49:54;3.60;;;2.20;;
10872;SDS011;34586;53.616;10.032;2023-01-28T04:52:20;5.30;;;2.30;;
10872;SDS011;34586;53.616;10.032;2023-01-28T04:54:45;4.57;;;2.07;;
10872;SDS011;34586;53.616;10.032;2023-01-28T04:57:11;2.50;;;2.07;;
10872;SDS011;34586;53.616;10.032;2023-01-28T04:59:36;2.67;;;2.10;;
10872;SDS011;34586;53.616;10.032;2023-01-28T05:02:02;4.27;;;2.20;;
10872;SDS011;34586;53.616;10.032;2023-01-28T05:04:28;4.70;;;2.47;;
10872;SDS011;34586;53.616;10.032;2023-01-28T05:06:53;4.07;;;2.23;;
10872;SDS011;34586;53.616;10.032;2023-01-28T05:09:19;3.43;;;1.93;;
10872;SDS011;34586;53.616;10.032;2023-01-28T05:11:44;2.70;;;2.00;;
10872;SDS011;34586;53.616;10.032;2023-01-28T05:14:10;3.37;;;2.30;;
10872;SDS011;34586;53.616;10.032;2023-01-28T05:16:35;3.20;;;2.33;;
10872;SDS011;34586;53.616;10.032;2023-01-28T05:19:01;2.57;;;2.37;;
10872;SDS011;34586;53.616;10.032;2023-01-28T05:21:27;2.17;;;1.93;;
10872;SDS011;34586;53.616;10.032;2023-01-28T05:23:53;3.30;;;2.60;;
10872;SDS011;34586;53.616;10.032;2023-01-28T05:26:18;3.47;;;2.80;;
10872;SDS011;34586;53.616;10.032;2023-01-28T05:28:44;4.53;;;2.80;;
10872;SDS011;34586;53.616;10.032;2023-01-28T05:31:10;3.33;;;2.50;;
10872;SDS011;34586;53.616;10.032;2023-01-28T05:33:36;3.40;;;2.33;;
10872;SDS011;34586;53.616;10.032;2023-01-28T05:36:02;3.97;;;2.60;;
10872;SDS011;34586;53.616;10.032;2023-01-28T05:38:28;2.87;;;2.50;;
10872;SDS011;34586;53.616;10.032;2023-01-28T05:40:53;2.70;;;2.50;;
10872;SDS011;34586;53.616;10.032;2023-01-28T05:43:19;3.40;;;2.80;;
10872;SDS011;34586;53.616;10.032;2023-01-28T05:45:45;4.53;;;2.63;;
10872;SDS011;34586;53.616;10.032;2023-01-28T05:48:11;2.90;;;2.70;;
10872;SDS011;34586;53.616;10.032;2023-01-28T05:50:37;10.97;;;3.40;;
10872;SDS011;34586;53.616;10.032;2023-01-28T05:53:04;10.40;;;3.53;;
10872;SDS011;34586;53.616;10.032;2023-01-28T05:55:30;12.97;;;3.50;;
10872;SDS011;34586;53.616;10.032;2023-01-28T05:57:56;8.87;;;3.43;;
10872;SDS011;34586;53.616;10.032;2023-01-28T06:00:22;13.63;;;4.00;;
10872;SDS011;34586;53.616;10.032;2023-01-28T06:02:49;24.10;;;5.93;;
10872;SDS011;34586;53.616;10.032;2023-01-28T06:05:15;16.13;;;4.33;;
10872;SDS011;34586;53.616;10.032;2023-01-28T06:07:43;19.13;;;4.90;;
10872;SDS011;34586;53.616;10.032;2023-01-28T06:10:09;11.43;;;4.17;;
10872;SDS011;34586;53.616;10.032;2023-01-28T06:12:35;17.40;;;4.13;;
10872;SDS011;34586;53.616;10.032;2023-01-28T06:15:01;8.67;;;4.03;;
10872;SDS011;34586;53.616;10.032;2023-01-28T06:17:27;8.00;;;3.43;;
10872;SDS011;34586;53.616;10.032;2023-01-28T06:19:53;9.37;;;3.30;;
10872;SDS011;34586;53.616;10.032;2023-01-28T06:22:18;10.00;;;3.77;;
10872;SDS011;34586;53.616;10.032;2023-01-28T06:24:44;6.63;;;3.50;;
10872;SDS011;34586;53.616;10.032;2023-01-28T06:27:09;6.47;;;3.53;;
10872;SDS011;34586;53.616;10.032;2023-01-28T06:29:35;6.83;;;3.80;;
10872;SDS011;34586;53.616;10.032;2023-01-28T06:32:00;7.20;;;3.70;;
10872;SDS011;34586;53.616;10.032;2023-01-28T06:34:26;4.17;;;3.30;;
10872;SDS011;34586;53.616;10.032;2023-01-28T06:36:52;5.83;;;3.60;;
10872;SDS011;34586;53.616;10.032;2023-01-28T06:39:18;6.77;;;3.77;;
10872;SDS011;34586;53.616;10.032;2023-01-28T06:41:45;7.47;;;3.80;;
10872;SDS011;34586;53.616;10.032;2023-01-28T06:44:11;4.57;;;3.60;;
10872;SDS011;34586;53.616;10.032;2023-01-28T06:46:37;6.73;;;3.80;;
10872;SDS011;34586;53.616;10.032;2023-01-28T06:49:02;4.53;;;3.93;;
10872;SDS011;34586;53.616;10.032;2023-01-28T06:51:28;5.27;;;4.00;;
10872;SDS011;34586;53.616;10.032;2023-01-28T06:53:53;5.63;;;4.07;;
10872;SDS011;34586;53.616;10.032;2023-01-28T06:56:19;6.17;;;4.80;;
10872;SDS011;34586;53.616;10.032;2023-01-28T06:58:45;6.47;;;4.60;;
10872;SDS011;34586;53.616;10.032;2023-01-28T07:01:10;6.90;;;4.90;;
10872;SDS011;34586;53.616;10.032;2023-01-28T07:03:36;5.80;;;4.20;;
10872;SDS011;34586;53.616;10.032;2023-01-28T07:06:01;6.23;;;4.80;;
10872;SDS011;34586;53.616;10.032;2023-01-28T07:08:27;7.63;;;4.97;;
10872;SDS011;34586;53.616;10.032;2023-01-28T07:10:53;7.63;;;4.77;;
10872;SDS011;34586;53.616;10.032;2023-01-28T07:13:18;9.20;;;5.63;;
10872;SDS011;34586;53.616;10.032;2023-01-28T07:15:44;4.87;;;4.37;;
10872;SDS011;34586;53.616;10.032;2023-01-28T07:18:09;9.80;;;5.47;;
10872;SDS011;34586;53.616;10.032;2023-01-28T07:20:35;6.40;;;5.10;;
10872;SDS011;34586;53.616;10.032;2023-01-28T07:23:00;8.57;;;5.53;;
10872;SDS011;34586;53.616;10.032;2023-01-28T07:25:26;9.83;;;6.37;;
10872;SDS011;34586;53.616;10.032;2023-01-28T07:27:52;13.33;;;6.67;;
10872;SDS011;34586;53.616;10.032;2023-01-28T07:30:18;7.37;;;6.40;;
10872;SDS011;34586;53.616;10.032;2023-01-28T07:32:45;10.17;;;6.93;;
10872;SDS011;34586;53.616;10.032;2023-01-28T07:35:11;8.30;;;6.93;;
10872;SDS011;34586;53.616;10.032;2023-01-28T07:37:38;7.97;;;7.27;;
10872;SDS011;34586;53.616;10.032;2023-01-28T07:40:04;7.63;;;6.93;;
10872;SDS011;34586;53.616;10.032;2023-01-28T07:42:30;9.13;;;7.63;;
10872;SDS011;34586;53.616;10.032;2023-01-28T07:44:55;10.33;;;7.80;;
10872;SDS011;34586;53.616;10.032;2023-01-28T07:47:21;9.43;;;8.03;;
10872;SDS011;34586;53.616;10.032;2023-01-28T07:49:47;10.00;;;8.00;;
10872;SDS011;34586;53.616;10.032;2023-01-28T07:52:12;12.80;;;7.60;;
10872;SDS011;34586;53.616;10.032;2023-01-28T07:54:38;8.60;;;7.43;;
10872;SDS011;34586;53.616;10.032;2023-01-28T07:57:07;9.67;;;8.13;;
10872;SDS011;34586;53.616;10.032;2023-01-28T07:59:35;9.13;;;8.17;;
10872;SDS011;34586;53.616;10.032;2023-01-28T08:02:01;10.90;;;8.47;;
10872;SDS011;34586;53.616;10.032;2023-01-28T08:04:27;10.10;;;9.10;;
10872;SDS011;34586;53.616;10.032;2023-01-28T08:06:52;12.77;;;8.43;;
10872;SDS011;34586;53.616;10.032;2023-01-28T08:09:18;9.27;;;8.17;;
10872;SDS011;34586;53.616;10.032;2023-01-28T08:11:43;11.20;;;9.13;;
10872;SDS011;34586;53.616;10.032;2023-01-28T08:14:09;11.40;;;9.13;;
10872;SDS011;34586;53.616;10.032;2023-01-28T08:16:35;12.40;;;9.50;;
10872;SDS011;34586;53.616;10.032;2023-01-28T08:19:01;12.20;;;9.23;;
10872;SDS011;34586;53.616;10.032;2023-01-28T08:21:26;10.93;;;8.50;;
10872;SDS011;34586;53.616;10.032;2023-01-28T08:23:52;11.37;;;9.33;;
10872;SDS011;34586;53.616;10.032;2023-01-28T08:26:18;9.23;;;8.20;;
10872;SDS011;34586;53.616;10.032;2023-01-28T08:28:45;9.60;;;8.23;;
10872;SDS011;34586;53.616;10.032;2023-01-28T08:31:10;9.30;;;8.33;;
10872;SDS011;34586;53.616;10.032;2023-01-28T08:33:36;14.97;;;8.40;;
10872;SDS011;34586;53.616;10.032;2023-01-28T08:36:02;10.83;;;8.30;;
10872;SDS011;34586;53.616;10.032;2023-01-28T08:38:29;11.37;;;8.80;;
10872;SDS011;34586;53.616;10.032;2023-01-28T08:40:54;9.23;;;8.17;;
10872;SDS011;34586;53.616;10.032;2023-01-28T08:43:21;11.23;;;7.90;;
10872;SDS011;34586;53.616;10.032;2023-01-28T08:45:47;10.37;;;8.73;;
10872;SDS011;34586;53.616;10.032;2023-01-28T08:48:14;9.30;;;7.77;;
10872;SDS011;34586;53.616;10.032;2023-01-28T08:50:41;9.17;;;8.13;;
10872;SDS011;34586;53.616;10.032;2023-01-28T08:53:09;9.17;;;8.10;;
10872;SDS011;34586;53.616;10.032;2023-01-28T08:55:37;9.00;;;8.10;;
10872;SDS011;34586;53.616;10.032;2023-01-28T08:58:06;9.37;;;8.37;;
10872;SDS011;34586;53.616;10.032;2023-01-28T09:00:35;10.30;;;7.90;;
10872;SDS011;34586;53.616;10.032;2023-01-28T09:03:01;9.20;;;8.27;;
10872;SDS011;34586;53.616;10.032;2023-01-28T09:05:27;9.93;;;7.63;;
10872;SDS011;34586;53.616;10.032;2023-01-28T09:07:53;10.17;;;7.77;;
10872;SDS011;34586;53.616;10.032;2023-01-28T09:10:19;8.60;;;7.53;;
10872;SDS011;34586;53.616;10.032;2023-01-28T09:12:45;11.60;;;7.87;;
10872;SDS011;34586;53.616;10.032;2023-01-28T09:15:11;8.67;;;7.33;;
10872;SDS011;34586;53.616;10.032;2023-01-28T09:17:37;8.17;;;6.57;;
10872;SDS011;34586;53.616;10.032;2023-01-28T09:20:03;9.33;;;7.60;;
10872;SDS011;34586;53.616;10.032;2023-01-28T09:22:31;7.50;;;6.73;;
10872;SDS011;34586;53.616;10.032;2023-01-28T09:24:56;7.27;;;6.07;;
10872;SDS011;34586;53.616;10.032;2023-01-28T09:27:22;11.67;;;6.97;;
10872;SDS011;34586;53.616;10.032;2023-01-28T09:29:47;8.67;;;6.50;;
10872;SDS011;34586;53.616;10.032;2023-01-28T09:32:13;7.60;;;6.10;;
10872;SDS011;34586;53.616;10.032;2023-01-28T09:34:39;8.77;;;6.80;;
10872;SDS011;34586;53.616;10.032;2023-01-28T09:37:04;7.63;;;6.43;;
10872;SDS011;34586;53.616;10.032;2023-01-28T09:39:30;6.57;;;5.97;;
10872;SDS011;34586;53.616;10.032;2023-01-28T09:47:57;7.17;;;6.20;;
10872;SDS011;34586;53.616;10.032;2023-01-28T09:50:29;5.90;;;5.23;;
10872;SDS011;34586;53.616;10.032;2023-01-28T09:52:59;6.73;;;5.20;;
10872;SDS011;34586;53.616;10.032;2023-01-28T09:55:33;6.83;;;5.13;;
10872;SDS011;34586;53.616;10.032;2023-01-28T09:58:03;6.27;;;5.30;;
10872;SDS011;34586;53.616;10.032;2023-01-28T10:06:04;6.93;;;5.20;;
10872;SDS011;34586;53.616;10.032;2023-01-28T10:14:21;5.03;;;4.37;;
10872;SDS011;34586;53.616;10.032;2023-01-28T10:17:10;6.70;;;5.17;;
10872;SDS011;34586;53.616;10.032;2023-01-28T10:19:52;5.40;;;4.90;;
10872;SDS011;34586;53.616;10.032;2023-01-28T10:22:31;6.43;;;5.17;;
10872;SDS011;34586;53.616;10.032;2023-01-28T10:25:03;5.00;;;4.50;;
10872;SDS011;34586;53.616;10.032;2023-01-28T10:27:39;5.80;;;5.20;;
10872;SDS011;34586;53.616;10.032;2023-01-28T10:30:19;7.10;;;5.57;;
10872;SDS011;34586;53.616;10.032;2023-01-28T10:35:51;7.47;;;6.30;;
10872;SDS011;34586;53.616;10.032;2023-01-28T10:38:19;6.80;;;6.07;;
10872;SDS011;34586;53.616;10.032;2023-01-28T10:40:46;7.00;;;6.40;;
10872;SDS011;34586;53.616;10.032;2023-01-28T10:43:13;7.67;;;5.97;;
10872;SDS011;34586;53.616;10.032;2023-01-28T10:48:37;6.43;;;5.83;;
10872;SDS011;34586;53.616;10.032;2023-01-28T10:51:28;7.40;;;5.97;;
10872;SDS011;34586;53.616;10.032;2023-01-28T10:53:55;8.63;;;5.63;;
10872;SDS011;34586;53.616;10.032;2023-01-28T10:56:24;6.60;;;5.60;;
10872;SDS011;34586;53.616;10.032;2023-01-28T10:59:05;6.13;;;5.43;;
10872;SDS011;34586;53.616;10.032;2023-01-28T11:04:28;5.33;;;4.83;;
10872;SDS011;34586;53.616;10.032;2023-01-28T11:07:02;5.73;;;5.13;;
10872;SDS011;34586;53.616;10.032;2023-01-28T11:09:31;11.40;;;5.70;;
10872;SDS011;34586;53.616;10.032;2023-01-28T11:12:08;8.10;;;5.00;;
10872;SDS011;34586;53.616;10.032;2023-01-28T11:14:36;6.70;;;6.00;;
10872;SDS011;34586;53.616;10.032;2023-01-28T11:17:01;7.57;;;5.80;;
10872;SDS011;34586;53.616;10.032;2023-01-28T11:19:32;8.03;;;6.83;;
10872;SDS011;34586;53.616;10.032;2023-01-28T11:21:59;6.40;;;5.80;;
10872;SDS011;34586;53.616;10.032;2023-01-28T11:24:27;6.53;;;5.93;;
10872;SDS011;34586;53.616;10.032;2023-01-28T11:26:55;6.17;;;5.57;;
10872;SDS011;34586;53.616;10.032;2023-01-28T11:31:58;6.50;;;6.00;;
10872;SDS011;34586;53.616;10.032;2023-01-28T11:34:28;6.80;;;6.20;;
10872;SDS011;34586;53.616;10.032;2023-01-28T11:37:01;7.30;;;6.60;;
10872;SDS011;34586;53.616;10.032;2023-01-28T11:39:30;8.30;;;7.47;;
10872;SDS011;34586;53.616;10.032;2023-01-28T11:42:08;8.60;;;7.33;;
10872;SDS011;34586;53.616;10.032;2023-01-28T11:44:35;7.83;;;6.30;;
10872;SDS011;34586;53.616;10.032;2023-01-28T11:47:07;6.73;;;6.13;;
10872;SDS011;34586;53.616;10.032;2023-01-28T12:01:02;9.90;;;7.50;;
10872;SDS011;34586;53.616;10.032;2023-01-28T12:09:14;8.63;;;7.73;;
10872;SDS011;34586;53.616;10.032;2023-01-28T12:17:41;10.37;;;7.80;;
10872;SDS011;34586;53.616;10.032;2023-01-28T12:25:54;10.00;;;7.87;;
10872;SDS011;34586;53.616;10.032;2023-01-28T12:28:33;9.00;;;8.10;;
10872;SDS011;34586;53.616;10.032;2023-01-28T12:31:14;8.67;;;7.87;;
10872;SDS011;34586;53.616;10.032;2023-01-28T12:44:39;7.77;;;7.03;;
10872;SDS011;34586;53.616;10.032;2023-01-28T12:47:19;8.07;;;7.13;;
10872;SDS011;34586;53.616;10.032;2023-01-28T12:49:58;8.93;;;7.80;;
10872;SDS011;34586;53.616;10.032;2023-01-28T12:52:52;9.40;;;7.77;;
10872;SDS011;34586;53.616;10.032;2023-01-28T12:58:06;8.87;;;7.97;;
10872;SDS011;34586;53.616;10.032;2023-01-28T13:00:38;8.83;;;8.03;;
10872;SDS011;34586;53.616;10.032;2023-01-28T13:03:13;9.87;;;8.23;;
10872;SDS011;34586;53.616;10.032;2023-01-28T13:05:48;9.63;;;8.73;;
10872;SDS011;34586;53.616;10.032;2023-01-28T13:08:24;10.77;;;7.97;;
10872;SDS011;34586;53.616;10.032;2023-01-28T13:10:51;9.80;;;7.23;;
10872;SDS011;34586;53.616;10.032;2023-01-28T13:13:29;9.17;;;8.27;;
10872;SDS011;34586;53.616;10.032;2023-01-28T13:15:57;10.17;;;8.63;;
10872;SDS011;34586;53.616;10.032;2023-01-28T13:21:15;11.73;;;8.90;;
10872;SDS011;34586;53.616;10.032;2023-01-28T13:24:03;9.77;;;8.87;;
10872;SDS011;34586;53.616;10.032;2023-01-28T13:26:47;11.27;;;9.37;;
10872;SDS011;34586;53.616;10.032;2023-01-28T13:31:51;10.37;;;9.10;;
10872;SDS011;34586;53.616;10.032;2023-01-28T13:34:29;12.73;;;10.37;;
10872;SDS011;34586;53.616;10.032;2023-01-28T13:39:47;12.73;;;10.30;;
10872;SDS011;34586;53.616;10.032;2023-01-28T13:42:24;10.47;;;9.37;;
10872;SDS011;34586;53.616;10.032;2023-01-28T13:44:51;11.83;;;9.83;;
10872;SDS011;34586;53.616;10.032;2023-01-28T13:47:30;11.63;;;9.90;;
10872;SDS011;34586;53.616;10.032;2023-01-28T13:50:04;10.80;;;9.70;;
10872;SDS011;34586;53.616;10.032;2023-01-28T13:52:44;10.87;;;9.10;;
10872;SDS011;34586;53.616;10.032;2023-01-28T13:55:23;14.40;;;12.90;;
10872;SDS011;34586;53.616;10.032;2023-01-28T14:09:07;11.53;;;10.23;;
10872;SDS011;34586;53.616;10.032;2023-01-28T14:17:56;12.13;;;10.83;;
10872;SDS011;34586;53.616;10.032;2023-01-28T14:20:31;13.23;;;11.63;;
10872;SDS011;34586;53.616;10.032;2023-01-28T14:23:02;12.23;;;11.03;;
10872;SDS011;34586;53.616;10.032;2023-01-28T14:26:04;13.67;;;11.33;;
10872;SDS011;34586;53.616;10.032;2023-01-28T14:28:36;13.70;;;11.53;;
10872;SDS011;34586;53.616;10.032;2023-01-28T14:31:31;15.33;;;12.47;;
10872;SDS011;34586;53.616;10.032;2023-01-28T14:36:39;14.23;;;12.10;;
10872;SDS011;34586;53.616;10.032;2023-01-28T14:39:14;13.30;;;11.70;;
10872;SDS011;34586;53.616;10.032;2023-01-28T14:41:45;13.30;;;11.40;;
10872;SDS011;34586;53.616;10.032;2023-01-28T14:44:30;13.37;;;11.63;;
10872;SDS011;34586;53.616;10.032;2023-01-28T14:47:09;13.97;;;11.60;;
10872;SDS011;34586;53.616;10.032;2023-01-28T14:55:44;12.57;;;10.97;;
10872;SDS011;34586;53.616;10.032;2023-01-28T14:58:31;13.40;;;11.00;;
10872;SDS011;34586;53.616;10.032;2023-01-28T15:01:01;14.30;;;11.37;;
10872;SDS011;34586;53.616;10.032;2023-01-28T15:03:27;12.70;;;11.40;;
10872;SDS011;34586;53.616;10.032;2023-01-28T15:06:15;11.90;;;10.67;;
10872;SDS011;34586;53.616;10.032;2023-01-28T15:08:41;14.33;;;10.70;;
10872;SDS011;34586;53.616;10.032;2023-01-28T15:11:08;12.93;;;10.40;;
10872;SDS011;34586;53.616;10.032;2023-01-28T15:13:41;11.97;;;10.57;;
10872;SDS011;34586;53.616;10.032;2023-01-28T15:16:19;12.57;;;11.37;;
10872;SDS011;34586;53.616;10.032;2023-01-28T15:18:47;13.83;;;11.63;;
10872;SDS011;34586;53.616;10.032;2023-01-28T15:21:18;11.93;;;10.70;;
10872;SDS011;34586;53.616;10.032;2023-01-28T15:23:46;12.50;;;11.20;;
10872;SDS011;34586;53.616;10.032;2023-01-28T15:26:19;14.50;;;11.77;;
10872;SDS011;34586;53.616;10.032;2023-01-28T15:29:05;13.73;;;11.13;;
10872;SDS011;34586;53.616;10.032;2023-01-28T15:31:32;11.80;;;10.37;;
10872;SDS011;34586;53.616;10.032;2023-01-28T15:34:12;12.27;;;10.63;;
10872;SDS011;34586;53.616;10.032;2023-01-28T15:36:40;12.77;;;11.37;;
10872;SDS011;34586;53.616;10.032;2023-01-28T15:39:16;12.10;;;10.90;;
10872;SDS011;34586;53.616;10.032;2023-01-28T15:41:45;12.97;;;11.57;;
10872;SDS011;34586;53.616;10.032;2023-01-28T15:44:36;12.30;;;11.00;;
10872;SDS011;34586;53.616;10.032;2023-01-28T15:49:44;12.60;;;11.07;;
10872;SDS011;34586;53.616;10.032;2023-01-28T15:52:12;13.33;;;10.80;;
10872;SDS011;34586;53.616;10.032;2023-01-28T15:54:39;13.63;;;11.60;;
10872;SDS011;34586;53.616;10.032;2023-01-28T15:57:30;14.67;;;10.87;;
10872;SDS011;34586;53.616;10.032;2023-01-28T16:00:17;14.63;;;11.27;;
10872;SDS011;34586;53.616;10.032;2023-01-28T16:02:47;13.20;;;11.77;;
10872;SDS011;34586;53.616;10.032;2023-01-28T16:05:30;13.87;;;11.60;;
10872;SDS011;34586;53.616;10.032;2023-01-28T16:08:07;15.73;;;11.80;;
10872;SDS011;34586;53.616;10.032;2023-01-28T16:10:35;14.07;;;12.13;;
10872;SDS011;34586;53.616;10.032;2023-01-28T16:13:09;13.07;;;11.67;;
10872;SDS011;34586;53.616;10.032;2023-01-28T16:15:50;14.67;;;11.90;;
10872;SDS011;34586;53.616;10.032;2023-01-28T16:18:21;15.77;;;11.97;;
10872;SDS011;34586;53.616;10.032;2023-01-28T16:20:56;13.17;;;11.40;;
10872;SDS011;34586;53.616;10.032;2023-01-28T16:23:24;14.67;;;12.90;;
10872;SDS011;34586;53.616;10.032;2023-01-28T16:26:02;14.80;;;11.97;;
10872;SDS011;34586;53.616;10.032;2023-01-28T16:28:30;16.17;;;12.00;;
10872;SDS011;34586;53.616;10.032;2023-01-28T16:30:56;14.63;;;12.30;;
10872;SDS011;34586;53.616;10.032;2023-01-28T16:33:23;12.77;;;11.40;;
10872;SDS011;34586;53.616;10.032;2023-01-28T16:35:50;16.57;;;11.80;;
10872;SDS011;34586;53.616;10.032;2023-01-28T16:38:16;13.10;;;11.20;;
10872;SDS011;34586;53.616;10.032;2023-01-28T16:40:42;13.70;;;12.30;;
10872;SDS011;34586;53.616;10.032;2023-01-28T16:43:10;14.23;;;12.70;;
10872;SDS011;34586;53.616;10.032;2023-01-28T16:45:36;16.57;;;12.13;;
10872;SDS011;34586;53.616;10.032;2023-01-28T16:48:02;14.30;;;12.00;;
10872;SDS011;34586;53.616;10.032;2023-01-28T16:50:28;17.77;;;13.03;;
10872;SDS011;34586;53.616;10.032;2023-01-28T16:52:55;16.43;;;12.83;;
10872;SDS011;34586;53.616;10.032;2023-01-28T16:55:22;14.93;;;12.13;;
10872;SDS011;34586;53.616;10.032;2023-01-28T16:57:49;15.70;;;12.63;;
10872;SDS011;34586;53.616;10.032;2023-01-28T17:02:50;14.83;;;12.73;;